sensor_id;sensor_type;location;lat;lon;timestamp;pressure;altitude;pressure_sealevel;temperature;humidity
59391;BME280;53405;57.012;40.984;2023-12-20T00:01:58;97972.13;;;2.83;100.00
59391;BME280;53405;57.012;40.984;2023-12-20T00:04:25;97953.69;;;2.69;100.00
59391;BME280;53405;57.012;40.984;2023-12-20T00:06:53;97971.72;;;2.71;100.00
59391;BME280;53405;57.012;40.984;2023-12-20T00:09:21;97977.78;;;3.16;100.00
59391;BME280;53405;57.012;40.984;2023-12-20T00:11:49;97975.78;;;2.88;100.00
59391;BME280;53405;57.012;40.984;2023-12-20T00:14:16;97964.22;;;2.76;100.00
59391;BME280;53405;57.012;40.984;2023-12-20T00:16:44;97893.19;;;2.46;100.00
59391;BME280;53405;57.012;40.984;2023-12-20T00:19:12;97942.72;;;2.82;100.00
59391;BME280;53405;57.012;40.984;2023-12-20T00:21:39;97978.94;;;2.84;100.00
59391;BME280;53405;57.012;40.984;2023-12-20T00:24:07;97956.38;;;2.61;100.00
59391;BME280;53405;57.012;40.984;2023-12-20T00:26:35;97970.13;;;2.70;100.00
59391;BME280;53405;57.012;40.984;2023-12-20T00:29:02;97976.91;;;2.56;100.00
59391;BME280;53405;57.012;40.984;2023-12-20T00:31:30;97959.94;;;2.45;100.00
59391;BME280;53405;57.012;40.984;2023-12-20T00:33:58;97978.28;;;2.44;100.00
59391;BME280;53405;57.012;40.984;2023-12-20T00:36:25;97975.09;;;2.57;100.00
59391;BME280;53405;57.012;40.984;2023-12-20T00:38:53;97980.94;;;2.59;100.00
59391;BME280;53405;57.012;40.984;2023-12-20T00:41:21;97985.28;;;2.43;100.00
59391;BME280;53405;57.012;40.984;2023-12-20T00:43:48;97926.84;;;2.01;100.00
59391;BME280;53405;57.012;40.984;2023-12-20T00:46:16;97989.16;;;2.24;100.00
59391;BME280;53405;57.012;40.984;2023-12-20T00:48:44;97964.22;;;1.92;100.00
59391;BME280;53405;57.012;40.984;2023-12-20T00:51:13;97978.41;;;2.04;100.00
59391;BME280;53405;57.012;40.984;2023-12-20T00:53:40;97988.97;;;2.03;100.00
59391;BME280;53405;57.012;40.984;2023-12-20T00:56:08;97970.25;;;1.84;100.00
59391;BME280;53405;57.012;40.984;2023-12-20T00:58:35;97987.59;;;2.15;100.00
59391;BME280;53405;57.012;40.984;2023-12-20T01:01:03;97976.78;;;1.80;100.00
59391;BME280;53405;57.012;40.984;2023-12-20T01:03:31;97978.09;;;1.76;100.00
59391;BME280;53405;57.012;40.984;2023-12-20T01:05:59;97984.91;;;1.77;100.00
59391;BME280;53405;57.012;40.984;2023-12-20T01:08:27;97983.78;;;2.03;100.00
59391;BME280;53405;57.012;40.984;2023-12-20T01:10:54;97956.72;;;1.97;100.00
59391;BME280;53405;57.012;40.984;2023-12-20T01:13:22;97987.91;;;1.89;100.00
59391;BME280;53405;57.012;40.984;2023-12-20T01:15:49;97984.88;;;1.85;100.00
59391;BME280;53405;57.012;40.984;2023-12-20T01:18:20;97975.78;;;1.81;100.00
59391;BME280;53405;57.012;40.984;2023-12-20T01:20:48;97983.13;;;1.77;100.00
59391;BME280;53405;57.012;40.984;2023-12-20T01:23:15;97982.66;;;1.74;100.00
59391;BME280;53405;57.012;40.984;2023-12-20T01:25:43;97956.78;;;1.57;100.00
59391;BME280;53405;57.012;40.984;2023-12-20T01:28:11;97985.25;;;1.74;100.00
59391;BME280;53405;57.012;40.984;2023-12-20T01:30:39;97993.34;;;1.79;100.00
59391;BME280;53405;57.012;40.984;2023-12-20T01:33:07;97971.31;;;1.67;100.00
59391;BME280;53405;57.012;40.984;2023-12-20T01:35:35;98000.88;;;1.66;100.00
59391;BME280;53405;57.012;40.984;2023-12-20T01:38:02;97996.81;;;1.63;100.00
59391;BME280;53405;57.012;40.984;2023-12-20T01:40:31;97976.22;;;1.61;100.00
59391;BME280;53405;57.012;40.984;2023-12-20T01:43:03;97994.06;;;1.65;100.00
59391;BME280;53405;57.012;40.984;2023-12-20T01:45:32;97990.84;;;1.54;100.00
59391;BME280;53405;57.012;40.984;2023-12-20T01:48:00;97975.38;;;1.69;100.00
59391;BME280;53405;57.012;40.984;2023-12-20T01:50:31;97991.19;;;1.51;100.00
59391;BME280;53405;57.012;40.984;2023-12-20T01:53:00;97989.75;;;1.49;100.00
59391;BME280;53405;57.012;40.984;2023-12-20T01:55:31;97982.75;;;1.49;100.00
59391;BME280;53405;57.012;40.984;2023-12-20T01:58:01;97975.53;;;1.36;100.00
59391;BME280;53405;57.012;40.984;2023-12-20T02:00:29;97987.03;;;1.42;100.00
59391;BME280;53405;57.012;40.984;2023-12-20T02:03:00;97975.53;;;1.36;100.00
59391;BME280;53405;57.012;40.984;2023-12-20T02:05:30;97976.78;;;1.49;100.00
59391;BME280;53405;57.012;40.984;2023-12-20T02:07:58;97982.75;;;1.49;100.00
59391;BME280;53405;57.012;40.984;2023-12-20T02:10:27;97967.69;;;1.44;100.00
59391;BME280;53405;57.012;40.984;2023-12-20T02:12:55;97959.72;;;1.54;100.00
59391;BME280;53405;57.012;40.984;2023-12-20T02:15:23;97966.69;;;1.54;100.00
59391;BME280;53405;57.012;40.984;2023-12-20T02:17:51;97953.38;;;1.57;100.00
59391;BME280;53405;57.012;40.984;2023-12-20T02:20:38;97960.19;;;1.58;100.00
59391;BME280;53405;57.012;40.984;2023-12-20T02:23:06;97963.94;;;1.55;100.00
59391;BME280;53405;57.012;40.984;2023-12-20T02:25:35;97961.16;;;1.57;100.00
59391;BME280;53405;57.012;40.984;2023-12-20T02:28:03;97942.75;;;1.43;100.00
59391;BME280;53405;57.012;40.984;2023-12-20T02:30:31;97954.56;;;1.46;100.00
59391;BME280;53405;57.012;40.984;2023-12-20T02:33:03;97960.09;;;1.43;100.00
59391;BME280;53405;57.012;40.984;2023-12-20T02:35:34;97968.03;;;1.41;100.00
59391;BME280;53405;57.012;40.984;2023-12-20T02:38:02;97961.25;;;1.40;100.00
59391;BME280;53405;57.012;40.984;2023-12-20T02:40:30;97974.53;;;1.46;100.00
59391;BME280;53405;57.012;40.984;2023-12-20T02:42:57;97975.31;;;1.46;100.00
59391;BME280;53405;57.012;40.984;2023-12-20T02:45:26;97971.22;;;1.60;100.00
59391;BME280;53405;57.012;40.984;2023-12-20T02:47:55;97976.69;;;1.65;100.00
59391;BME280;53405;57.012;40.984;2023-12-20T02:50:23;97930.50;;;1.21;100.00
59391;BME280;53405;57.012;40.984;2023-12-20T02:52:50;97966.00;;;1.60;100.00
59391;BME280;53405;57.012;40.984;2023-12-20T02:55:18;97978.19;;;1.51;100.00
59391;BME280;53405;57.012;40.984;2023-12-20T02:57:46;97985.66;;;1.54;100.00
59391;BME280;53405;57.012;40.984;2023-12-20T03:00:14;97978.25;;;1.43;100.00
59391;BME280;53405;57.012;40.984;2023-12-20T03:02:42;97941.53;;;1.23;100.00
59391;BME280;53405;57.012;40.984;2023-12-20T03:05:10;97969.19;;;1.39;100.00
59391;BME280;53405;57.012;40.984;2023-12-20T03:07:38;97981.97;;;1.49;100.00
59391;BME280;53405;57.012;40.984;2023-12-20T03:10:05;97981.63;;;1.52;100.00
59391;BME280;53405;57.012;40.984;2023-12-20T03:12:46;97926.38;;;1.43;100.00
59391;BME280;53405;57.012;40.984;2023-12-20T03:15:14;97961.28;;;1.63;100.00
59391;BME280;53405;57.012;40.984;2023-12-20T03:17:42;97965.50;;;1.65;100.00
59391;BME280;53405;57.012;40.984;2023-12-20T03:20:10;97961.34;;;1.55;100.00
59391;BME280;53405;57.012;40.984;2023-12-20T03:22:38;97970.59;;;1.50;100.00
59391;BME280;53405;57.012;40.984;2023-12-20T03:25:06;97968.81;;;1.50;100.00
59391;BME280;53405;57.012;40.984;2023-12-20T03:27:37;97968.81;;;1.50;100.00
59391;BME280;53405;57.012;40.984;2023-12-20T03:30:07;97968.16;;;1.48;100.00
59391;BME280;53405;57.012;40.984;2023-12-20T03:32:35;97958.28;;;1.83;100.00
59391;BME280;53405;57.012;40.984;2023-12-20T03:35:03;97959.38;;;1.57;100.00
59391;BME280;53405;57.012;40.984;2023-12-20T03:37:30;97913.72;;;1.40;100.00
59391;BME280;53405;57.012;40.984;2023-12-20T03:39:58;97947.84;;;1.60;100.00
59391;BME280;53405;57.012;40.984;2023-12-20T03:42:26;97943.97;;;1.56;100.00
59391;BME280;53405;57.012;40.984;2023-12-20T03:44:54;97951.94;;;1.54;100.00
59391;BME280;53405;57.012;40.984;2023-12-20T03:47:22;97970.59;;;1.50;100.00
59391;BME280;53405;57.012;40.984;2023-12-20T03:49:50;97949.59;;;1.36;100.00
59391;BME280;53405;57.012;40.984;2023-12-20T03:52:17;97953.63;;;1.70;100.00
59391;BME280;53405;57.012;40.984;2023-12-20T03:54:45;97918.19;;;1.62;100.00
59391;BME280;53405;57.012;40.984;2023-12-20T03:57:13;97951.41;;;1.59;100.00
59391;BME280;53405;57.012;40.984;2023-12-20T03:59:41;97965.81;;;1.70;100.00
59391;BME280;53405;57.012;40.984;2023-12-20T04:02:09;97952.53;;;1.65;100.00
59391;BME280;53405;57.012;40.984;2023-12-20T04:04:37;97948.25;;;1.80;100.00
59391;BME280;53405;57.012;40.984;2023-12-20T04:07:05;97958.06;;;1.61;100.00
59391;BME280;53405;57.012;40.984;2023-12-20T04:09:33;97948.53;;;1.54;100.00
59391;BME280;53405;57.012;40.984;2023-12-20T04:12:00;97938.59;;;1.66;100.00
59391;BME280;53405;57.012;40.984;2023-12-20T04:14:28;97939.47;;;1.50;100.00
59391;BME280;53405;57.012;40.984;2023-12-20T04:16:56;97942.38;;;1.47;100.00
59391;BME280;53405;57.012;40.984;2023-12-20T04:19:23;97938.53;;;1.42;100.00
59391;BME280;53405;57.012;40.984;2023-12-20T04:21:51;97949.75;;;1.35;100.00
59391;BME280;53405;57.012;40.984;2023-12-20T04:24:19;97962.56;;;1.36;100.00
59391;BME280;53405;57.012;40.984;2023-12-20T04:26:49;97939.41;;;1.26;100.00
59391;BME280;53405;57.012;40.984;2023-12-20T04:29:16;97953.19;;;1.27;100.00
59391;BME280;53405;57.012;40.984;2023-12-20T04:31:44;97969.03;;;1.32;100.00
59391;BME280;53405;57.012;40.984;2023-12-20T04:34:12;97959.00;;;1.29;100.00
59391;BME280;53405;57.012;40.984;2023-12-20T04:36:40;97969.72;;;1.26;100.00
59391;BME280;53405;57.012;40.984;2023-12-20T04:39:07;97965.81;;;1.30;100.00
59391;BME280;53405;57.012;40.984;2023-12-20T04:41:35;97940.72;;;1.22;100.00
59391;BME280;53405;57.012;40.984;2023-12-20T04:44:03;97965.66;;;1.32;100.00
59391;BME280;53405;57.012;40.984;2023-12-20T04:46:32;97968.72;;;1.35;100.00
59391;BME280;53405;57.012;40.984;2023-12-20T04:49:00;97974.06;;;1.34;100.00
59391;BME280;53405;57.012;40.984;2023-12-20T04:51:28;97964.94;;;1.46;100.00
59391;BME280;53405;57.012;40.984;2023-12-20T04:53:55;97950.22;;;1.38;100.00
59391;BME280;53405;57.012;40.984;2023-12-20T04:56:23;97944.94;;;1.23;100.00
59391;BME280;53405;57.012;40.984;2023-12-20T04:58:51;97957.38;;;1.36;100.00
59391;BME280;53405;57.012;40.984;2023-12-20T05:01:18;97951.59;;;1.57;100.00
59391;BME280;53405;57.012;40.984;2023-12-20T05:03:47;97950.34;;;1.45;100.00
59391;BME280;53405;57.012;40.984;2023-12-20T05:06:15;97953.75;;;1.46;100.00
59391;BME280;53405;57.012;40.984;2023-12-20T05:08:42;97917.91;;;1.49;100.00
59391;BME280;53405;57.012;40.984;2023-12-20T05:11:09;97973.69;;;1.53;100.00
59391;BME280;53405;57.012;40.984;2023-12-20T05:13:37;97965.75;;;1.47;100.00
59391;BME280;53405;57.012;40.984;2023-12-20T05:16:15;97967.41;;;1.39;100.00
59391;BME280;53405;57.012;40.984;2023-12-20T05:18:48;97962.31;;;1.54;100.00
59391;BME280;53405;57.012;40.984;2023-12-20T05:21:17;97975.47;;;1.44;100.00
59391;BME280;53405;57.012;40.984;2023-12-20T05:23:45;97963.34;;;1.37;100.00
59391;BME280;53405;57.012;40.984;2023-12-20T05:26:13;97968.72;;;1.35;100.00
59391;BME280;53405;57.012;40.984;2023-12-20T05:28:41;97960.13;;;1.35;100.00
59391;BME280;53405;57.012;40.984;2023-12-20T05:31:09;97967.53;;;1.46;100.00
59391;BME280;53405;57.012;40.984;2023-12-20T05:33:37;97966.44;;;1.40;100.00
59391;BME280;53405;57.012;40.984;2023-12-20T05:36:05;97966.59;;;1.39;100.00
59391;BME280;53405;57.012;40.984;2023-12-20T05:38:32;97954.28;;;1.41;100.00
59391;BME280;53405;57.012;40.984;2023-12-20T05:41:00;97952.78;;;1.47;100.00
59391;BME280;53405;57.012;40.984;2023-12-20T05:43:28;97939.34;;;1.43;100.00
59391;BME280;53405;57.012;40.984;2023-12-20T05:45:55;97973.53;;;1.47;100.00
59391;BME280;53405;57.012;40.984;2023-12-20T05:48:23;97963.00;;;1.40;100.00
59391;BME280;53405;57.012;40.984;2023-12-20T05:50:51;97967.56;;;1.38;100.00
59391;BME280;53405;57.012;40.984;2023-12-20T05:53:19;97970.59;;;1.50;100.00
59391;BME280;53405;57.012;40.984;2023-12-20T05:55:46;97981.66;;;1.43;100.00
59391;BME280;53405;57.012;40.984;2023-12-20T05:58:14;97977.56;;;1.49;100.00
59391;BME280;53405;57.012;40.984;2023-12-20T06:00:43;97981.66;;;1.43;100.00
59391;BME280;53405;57.012;40.984;2023-12-20T06:03:11;97977.31;;;1.27;100.00
59391;BME280;53405;57.012;40.984;2023-12-20T06:05:38;97985.75;;;1.21;100.00
59391;BME280;53405;57.012;40.984;2023-12-20T06:08:07;97989.69;;;1.17;100.00
59391;BME280;53405;57.012;40.984;2023-12-20T06:10:34;97952.50;;;0.85;100.00
59391;BME280;53405;57.012;40.984;2023-12-20T06:13:02;97997.31;;;1.19;100.00
59391;BME280;53405;57.012;40.984;2023-12-20T06:15:31;97983.22;;;1.13;100.00
59391;BME280;53405;57.012;40.984;2023-12-20T06:17:59;98007.78;;;1.34;100.00
59391;BME280;53405;57.012;40.984;2023-12-20T06:20:27;97990.94;;;1.30;100.00
59391;BME280;53405;57.012;40.984;2023-12-20T06:22:55;98017.56;;;1.15;100.00
59391;BME280;53405;57.012;40.984;2023-12-20T06:25:23;98013.47;;;1.37;100.00
59391;BME280;53405;57.012;40.984;2023-12-20T06:27:50;98020.31;;;1.22;100.00
59391;BME280;53405;57.012;40.984;2023-12-20T06:30:18;98017.72;;;1.22;100.00
59391;BME280;53405;57.012;40.984;2023-12-20T06:32:46;98019.50;;;1.13;100.00
59391;BME280;53405;57.012;40.984;2023-12-20T06:35:15;97994.06;;;1.08;100.00
59391;BME280;53405;57.012;40.984;2023-12-20T06:37:43;98028.88;;;1.22;100.00
59391;BME280;53405;57.012;40.984;2023-12-20T06:40:12;98014.81;;;1.17;100.00
59391;BME280;53405;57.012;40.984;2023-12-20T06:42:46;98017.28;;;1.50;100.00
59391;BME280;53405;57.012;40.984;2023-12-20T06:45:31;98026.81;;;1.57;100.00
59391;BME280;53405;57.012;40.984;2023-12-20T06:47:59;97995.81;;;1.24;100.00
59391;BME280;53405;57.012;40.984;2023-12-20T06:50:27;98026.59;;;1.36;100.00
59391;BME280;53405;57.012;40.984;2023-12-20T06:52:55;98035.19;;;1.36;100.00
59391;BME280;53405;57.012;40.984;2023-12-20T06:55:22;98041.78;;;1.47;100.00
59391;BME280;53405;57.012;40.984;2023-12-20T06:57:51;98029.81;;;1.38;100.00
59391;BME280;53405;57.012;40.984;2023-12-20T07:00:19;98045.72;;;1.35;100.00
59391;BME280;53405;57.012;40.984;2023-12-20T07:02:48;98035.69;;;1.32;100.00
59391;BME280;53405;57.012;40.984;2023-12-20T07:05:17;98018.97;;;1.26;100.00
59391;BME280;53405;57.012;40.984;2023-12-20T07:07:47;98011.06;;;1.19;100.00
59391;BME280;53405;57.012;40.984;2023-12-20T07:10:16;98022.69;;;1.40;100.00
59391;BME280;53405;57.012;40.984;2023-12-20T07:12:44;98038.25;;;1.40;100.00
59391;BME280;53405;57.012;40.984;2023-12-20T07:15:12;98026.59;;;1.36;100.00
59391;BME280;53405;57.012;40.984;2023-12-20T07:17:40;98017.78;;;1.45;100.00
59391;BME280;53405;57.012;40.984;2023-12-20T07:20:08;98022.34;;;1.43;100.00
59391;BME280;53405;57.012;40.984;2023-12-20T07:22:38;98020.22;;;1.55;100.00
59391;BME280;53405;57.012;40.984;2023-12-20T07:25:07;97993.72;;;1.28;100.00
59391;BME280;53405;57.012;40.984;2023-12-20T07:27:35;98037.25;;;1.49;100.00
59391;BME280;53405;57.012;40.984;2023-12-20T07:30:03;98035.28;;;1.59;100.00
59391;BME280;53405;57.012;40.984;2023-12-20T07:32:32;98034.47;;;1.51;100.00
59391;BME280;53405;57.012;40.984;2023-12-20T07:35:01;98024.69;;;1.69;100.00
59391;BME280;53405;57.012;40.984;2023-12-20T07:37:31;98029.53;;;1.72;100.00
59391;BME280;53405;57.012;40.984;2023-12-20T07:39:59;98037.31;;;1.72;100.00
59391;BME280;53405;57.012;40.984;2023-12-20T07:42:29;98051.94;;;1.65;100.00
59391;BME280;53405;57.012;40.984;2023-12-20T07:44:56;98050.50;;;2.02;100.00
59391;BME280;53405;57.012;40.984;2023-12-20T07:47:24;98049.13;;;1.83;100.00
59391;BME280;53405;57.012;40.984;2023-12-20T07:49:52;98052.78;;;1.57;100.00
59391;BME280;53405;57.012;40.984;2023-12-20T07:52:20;98060.72;;;1.64;100.00
59391;BME280;53405;57.012;40.984;2023-12-20T07:54:50;98063.97;;;1.58;100.00
59391;BME280;53405;57.012;40.984;2023-12-20T07:57:18;98067.06;;;1.53;100.00
59391;BME280;53405;57.012;40.984;2023-12-20T07:59:46;98020.78;;;1.25;100.00
59391;BME280;53405;57.012;40.984;2023-12-20T08:02:14;98042.59;;;1.48;100.00
59391;BME280;53405;57.012;40.984;2023-12-20T08:04:41;98043.31;;;1.73;100.00
59391;BME280;53405;57.012;40.984;2023-12-20T08:07:09;98013.53;;;1.60;100.00
59391;BME280;53405;57.012;40.984;2023-12-20T08:09:37;98020.66;;;1.98;100.00
59391;BME280;53405;57.012;40.984;2023-12-20T08:12:05;98039.88;;;1.80;100.00
59391;BME280;53405;57.012;40.984;2023-12-20T08:14:33;98044.09;;;1.82;100.00
59391;BME280;53405;57.012;40.984;2023-12-20T08:17:00;98055.31;;;1.74;100.00
59391;BME280;53405;57.012;40.984;2023-12-20T08:19:28;98046.03;;;1.88;100.00
59391;BME280;53405;57.012;40.984;2023-12-20T08:21:56;98028.56;;;2.05;100.00
59391;BME280;53405;57.012;40.984;2023-12-20T08:24:23;98054.84;;;2.02;100.00
59391;BME280;53405;57.012;40.984;2023-12-20T08:26:51;98053.03;;;2.10;100.00
59391;BME280;53405;57.012;40.984;2023-12-20T08:29:21;98053.50;;;2.14;100.00
59391;BME280;53405;57.012;40.984;2023-12-20T08:31:53;98051.41;;;2.09;100.00
59391;BME280;53405;57.012;40.984;2023-12-20T08:34:53;98060.31;;;2.15;100.00
59391;BME280;53405;57.012;40.984;2023-12-20T08:37:23;98063.50;;;2.25;100.00
59391;BME280;53405;57.012;40.984;2023-12-20T08:39:51;98060.88;;;2.02;100.00
59391;BME280;53405;57.012;40.984;2023-12-20T08:42:18;98063.31;;;1.95;100.00
59391;BME280;53405;57.012;40.984;2023-12-20T08:44:47;98042.78;;;1.86;100.00
59391;BME280;53405;57.012;40.984;2023-12-20T08:47:14;98059.69;;;2.13;100.00
59391;BME280;53405;57.012;40.984;2023-12-20T08:49:43;97962.88;;;1.33;100.00
59391;BME280;53405;57.012;40.984;2023-12-20T08:52:11;98056.09;;;1.83;100.00
59391;BME280;53405;57.012;40.984;2023-12-20T08:54:39;98074.25;;;1.91;100.00
59391;BME280;53405;57.012;40.984;2023-12-20T08:57:09;98040.94;;;2.26;100.00
59391;BME280;53405;57.012;40.984;2023-12-20T08:59:36;98045.69;;;1.91;100.00
59391;BME280;53405;57.012;40.984;2023-12-20T09:02:04;98044.09;;;1.82;100.00
59391;BME280;53405;57.012;40.984;2023-12-20T09:04:32;98056.25;;;1.81;100.00
59391;BME280;53405;57.012;40.984;2023-12-20T09:07:00;98069.91;;;2.14;100.00
59391;BME280;53405;57.012;40.984;2023-12-20T09:09:28;98065.06;;;2.34;100.00
59391;BME280;53405;57.012;40.984;2023-12-20T09:11:56;98049.00;;;2.08;100.00
59391;BME280;53405;57.012;40.984;2023-12-20T09:14:24;98055.25;;;2.22;100.00
59391;BME280;53405;57.012;40.984;2023-12-20T09:16:52;98027.53;;;2.14;100.00
59391;BME280;53405;57.012;40.984;2023-12-20T09:19:23;98035.09;;;2.01;100.00
59391;BME280;53405;57.012;40.984;2023-12-20T09:21:51;98067.78;;;2.18;100.00
59391;BME280;53405;57.012;40.984;2023-12-20T09:24:19;98061.94;;;2.39;100.00
59391;BME280;53405;57.012;40.984;2023-12-20T09:26:47;98057.91;;;2.13;100.00
59391;BME280;53405;57.012;40.984;2023-12-20T09:29:15;98065.97;;;2.19;100.00
59391;BME280;53405;57.012;40.984;2023-12-20T09:31:43;98059.88;;;2.11;100.00
59391;BME280;53405;57.012;40.984;2023-12-20T09:34:12;98066.16;;;2.17;100.00
59391;BME280;53405;57.012;40.984;2023-12-20T09:36:41;98014.25;;;1.77;100.00
59391;BME280;53405;57.012;40.984;2023-12-20T09:39:15;98025.78;;;1.83;100.00
59391;BME280;53405;57.012;40.984;2023-12-20T09:42:02;98016.75;;;1.94;100.00
59391;BME280;53405;57.012;40.984;2023-12-20T09:44:32;98052.91;;;2.04;100.00
59391;BME280;53405;57.012;40.984;2023-12-20T09:47:04;98061.34;;;2.06;100.00
59391;BME280;53405;57.012;40.984;2023-12-20T09:49:32;98062.31;;;2.05;100.00
59391;BME280;53405;57.012;40.984;2023-12-20T09:52:02;98067.50;;;2.05;100.00
59391;BME280;53405;57.012;40.984;2023-12-20T09:54:32;98062.53;;;2.26;100.00
59391;BME280;53405;57.012;40.984;2023-12-20T09:57:00;98066.88;;;2.57;100.00
59391;BME280;53405;57.012;40.984;2023-12-20T09:59:27;98072.28;;;2.94;99.78
59391;BME280;53405;57.012;40.984;2023-12-20T10:01:56;98071.00;;;2.66;100.00
59391;BME280;53405;57.012;40.984;2023-12-20T10:04:25;98073.56;;;2.51;100.00
59391;BME280;53405;57.012;40.984;2023-12-20T10:06:57;98048.59;;;2.19;100.00
59391;BME280;53405;57.012;40.984;2023-12-20T10:09:32;98089.38;;;2.42;100.00
59391;BME280;53405;57.012;40.984;2023-12-20T10:12:00;98064.66;;;2.46;100.00
59391;BME280;53405;57.012;40.984;2023-12-20T10:14:29;98083.00;;;2.52;100.00
59391;BME280;53405;57.012;40.984;2023-12-20T10:17:04;98083.59;;;2.31;100.00
59391;BME280;53405;57.012;40.984;2023-12-20T10:19:33;98077.38;;;2.41;100.00
59391;BME280;53405;57.012;40.984;2023-12-20T10:22:04;98069.63;;;2.32;100.00
59391;BME280;53405;57.012;40.984;2023-12-20T10:24:32;98063.81;;;2.30;100.00
59391;BME280;53405;57.012;40.984;2023-12-20T10:27:04;98059.97;;;2.18;100.00
59391;BME280;53405;57.012;40.984;2023-12-20T10:29:36;97979.19;;;1.50;100.00
59391;BME280;53405;57.012;40.984;2023-12-20T10:32:31;98083.22;;;2.11;100.00
59391;BME280;53405;57.012;40.984;2023-12-20T10:35:00;98091.78;;;2.20;100.00
59391;BME280;53405;57.012;40.984;2023-12-20T10:37:30;98089.28;;;2.04;99.92
59391;BME280;53405;57.012;40.984;2023-12-20T10:39:59;98101.53;;;2.18;99.11
59391;BME280;53405;57.012;40.984;2023-12-20T10:42:31;98080.47;;;2.13;100.00
59391;BME280;53405;57.012;40.984;2023-12-20T10:45:00;98059.81;;;1.88;100.00
59391;BME280;53405;57.012;40.984;2023-12-20T10:47:32;98063.88;;;2.14;98.66
59391;BME280;53405;57.012;40.984;2023-12-20T10:50:06;98090.50;;;2.16;100.00
59391;BME280;53405;57.012;40.984;2023-12-20T10:52:35;98031.75;;;1.84;100.00
59391;BME280;53405;57.012;40.984;2023-12-20T10:55:04;98077.44;;;2.32;99.92
59391;BME280;53405;57.012;40.984;2023-12-20T10:57:32;98065.13;;;2.26;100.00
59391;BME280;53405;57.012;40.984;2023-12-20T11:00:03;98075.03;;;2.54;100.00
59391;BME280;53405;57.012;40.984;2023-12-20T11:02:36;98065.91;;;2.35;100.00
59391;BME280;53405;57.012;40.984;2023-12-20T11:08:03;98039.41;;;1.77;100.00
59391;BME280;53405;57.012;40.984;2023-12-20T11:10:51;98077.19;;;1.88;100.00
59391;BME280;53405;57.012;40.984;2023-12-20T11:13:31;98068.44;;;1.80;100.00
59391;BME280;53405;57.012;40.984;2023-12-20T11:16:00;98049.50;;;1.63;100.00
59391;BME280;53405;57.012;40.984;2023-12-20T11:18:31;98098.31;;;2.08;100.00
59391;BME280;53405;57.012;40.984;2023-12-20T11:21:04;98086.28;;;2.15;100.00
59391;BME280;53405;57.012;40.984;2023-12-20T11:23:33;98084.03;;;2.12;100.00
59391;BME280;53405;57.012;40.984;2023-12-20T11:26:02;98076.28;;;2.35;100.00
59391;BME280;53405;57.012;40.984;2023-12-20T11:28:30;98094.03;;;2.23;100.00
59391;BME280;53405;57.012;40.984;2023-12-20T11:31:00;98090.69;;;2.14;100.00
59391;BME280;53405;57.012;40.984;2023-12-20T11:33:35;98050.69;;;1.92;100.00
59391;BME280;53405;57.012;40.984;2023-12-20T11:36:13;98097.13;;;2.19;100.00
59391;BME280;53405;57.012;40.984;2023-12-20T11:38:58;98095.34;;;2.19;100.00
59391;BME280;53405;57.012;40.984;2023-12-20T11:41:27;98092.13;;;2.17;100.00
59391;BME280;53405;57.012;40.984;2023-12-20T11:43:56;98078.50;;;2.15;100.00
59391;BME280;53405;57.012;40.984;2023-12-20T11:46:23;98059.97;;;1.87;100.00
59391;BME280;53405;57.012;40.984;2023-12-20T11:48:52;98082.91;;;2.06;100.00
59391;BME280;53405;57.012;40.984;2023-12-20T11:51:20;98089.69;;;2.15;100.00
59391;BME280;53405;57.012;40.984;2023-12-20T11:53:51;98097.31;;;2.17;100.00
59391;BME280;53405;57.012;40.984;2023-12-20T11:56:20;98093.13;;;2.08;100.00
59391;BME280;53405;57.012;40.984;2023-12-20T11:58:48;98104.69;;;2.05;100.00
59391;BME280;53405;57.012;40.984;2023-12-20T12:01:20;98087.13;;;2.07;100.00
59391;BME280;53405;57.012;40.984;2023-12-20T12:04:02;98095.38;;;2.11;100.00
59391;BME280;53405;57.012;40.984;2023-12-20T12:06:30;98086.81;;;2.10;100.00
59391;BME280;53405;57.012;40.984;2023-12-20T12:08:58;98103.31;;;2.17;100.00
59391;BME280;53405;57.012;40.984;2023-12-20T12:11:25;98082.50;;;1.94;100.00
59391;BME280;53405;57.012;40.984;2023-12-20T12:13:53;98097.19;;;2.10;100.00
59391;BME280;53405;57.012;40.984;2023-12-20T12:16:21;98089.00;;;1.90;100.00
59391;BME280;53405;57.012;40.984;2023-12-20T12:18:56;98100.00;;;2.01;100.00
59391;BME280;53405;57.012;40.984;2023-12-20T12:21:25;98087.53;;;1.96;100.00
59391;BME280;53405;57.012;40.984;2023-12-20T12:24:08;98096.22;;;2.03;100.00
59391;BME280;53405;57.012;40.984;2023-12-20T12:26:37;98093.63;;;2.03;100.00
59391;BME280;53405;57.012;40.984;2023-12-20T12:29:08;98109.28;;;2.26;100.00
59391;BME280;53405;57.012;40.984;2023-12-20T12:31:36;98134.97;;;2.21;98.67
59391;BME280;53405;57.012;40.984;2023-12-20T12:34:05;98105.03;;;2.02;98.74
59391;BME280;53405;57.012;40.984;2023-12-20T12:36:34;98127.34;;;2.20;99.96
59391;BME280;53405;57.012;40.984;2023-12-20T12:39:02;98124.44;;;2.14;100.00
59391;BME280;53405;57.012;40.984;2023-12-20T12:41:32;98142.13;;;2.11;99.47
59391;BME280;53405;57.012;40.984;2023-12-20T12:44:00;98133.72;;;2.09;100.00
59391;BME280;53405;57.012;40.984;2023-12-20T12:46:41;98144.22;;;2.15;99.04
59391;BME280;53405;57.012;40.984;2023-12-20T12:49:09;98139.06;;;2.07;99.04
59391;BME280;53405;57.012;40.984;2023-12-20T12:51:37;98135.97;;;2.12;100.00
59391;BME280;53405;57.012;40.984;2023-12-20T12:54:05;98148.16;;;2.11;98.55
59391;BME280;53405;57.012;40.984;2023-12-20T12:56:33;98158.81;;;2.25;100.00
59391;BME280;53405;57.012;40.984;2023-12-20T12:59:01;98161.28;;;2.18;97.59
59391;BME280;53405;57.012;40.984;2023-12-20T13:01:29;98162.69;;;2.21;97.21
59391;BME280;53405;57.012;40.984;2023-12-20T13:03:57;98167.59;;;2.15;99.41